• Join FlightAware (Why Join?)
  • Login
  • US Flag 
02:31PM EDT


 

Airport Tracker/Info


-or-


 

Live Flight TrackerFlight Track Log ✈ CCA4297 ✈ 09-Aug-2013 ✈ ZUCK / CKG - ZUJZ / JZH

Flight Track Log - Related Links

Times and Time Zones

All times are in EDT time to prevent confusion due to time zone crossing. See the CCA4297 flight status page for this flight to view local times or setup timezone preferences in your user account.

Time Position Orientation Groundspeed Altitude Reporting Facility
EDT Latitude Longitude Course Direction KTS MPH feet Rate Location/Type
07:21AM 29.9344 106.4463 322° Northwest  Level Estimated
07:22AM 29.9882 106.3975 322° Northwest  Level Estimated
07:23AM 30.0419 106.3486 322° Northwest  Level Estimated
07:24AM 30.0956 106.2997 322° Northwest  Level Estimated
07:25AM 30.1492 106.2508 322° Northwest  Level Estimated
07:26AM 30.2029 106.2017 322° Northwest  Level Estimated
07:27AM 30.2565 106.1527 322° Northwest  Level Estimated
07:28AM 30.3101 106.1035 322° Northwest  Level Estimated
07:29AM 30.3637 106.0544 322° Northwest  Level Estimated
07:30AM 30.4173 106.0051 322° Northwest  Level Estimated
07:31AM 30.4708 105.9558 322° Northwest  Level Estimated
07:32AM 30.5244 105.9065 322° Northwest  Level Estimated
07:33AM 30.5779 105.8571 322° Northwest  Level Estimated
07:34AM 30.6314 105.8076 322° Northwest  Level Estimated
07:35AM 30.6849 105.7581 321° Northwest  Level Estimated
07:36AM 30.7383 105.7086 321° Northwest  Level Estimated
07:37AM 30.7918 105.6590 321° Northwest  Level Estimated
07:38AM 30.8452 105.6093 321° Northwest  Level Estimated
07:39AM 30.8986 105.5595 321° Northwest  Level Estimated
07:40AM 30.9520 105.5098 321° Northwest  Level Estimated
07:41AM 31.0054 105.4599 321° Northwest  Level Estimated
07:42AM 31.0587 105.4100 321° Northwest  Level Estimated
07:43AM 31.1121 105.3601 321° Northwest  Level Estimated
07:44AM 31.1654 105.3101 321° Northwest  Level Estimated
07:45AM 31.2187 105.2600 321° Northwest  Level Estimated
07:46AM 31.2719 105.2099 321° Northwest  Level Estimated
07:47AM 31.3252 105.1597 321° Northwest  Level Estimated
07:48AM 31.3784 105.1095 321° Northwest  Level Estimated
07:49AM 31.4316 105.0592 321° Northwest  Level Estimated
07:50AM 31.4848 105.0089 321° Northwest  Level Estimated
07:51AM 31.5380 104.9585 321° Northwest  Level Estimated
07:52AM 31.5912 104.9080 321° Northwest  Level Estimated
07:53AM 31.6443 104.8575 321° Northwest  Level Estimated
07:54AM 31.6974 104.8069 321° Northwest  Level Estimated
07:55AM 31.7505 104.7563 321° Northwest  Level Estimated
07:55AM 32.4060 104.6450 321° Northwest 479 551 23,600  Level FlightAware
07:56AM 31.8036 104.7056 321° Northwest  Level Estimated
07:56AM 32.4070 104.5420 271° West 479 551 23,600  Level FlightAware
07:57AM 32.4060 104.4300 269° West 478 550 23,600  Level FlightAware
07:57AM 32.4190 104.3560 282° West 477 549 23,600  Level FlightAware
07:57AM 32.4350 104.3220 299° West 475 547 23,600 -660 Level FlightAware
07:58AM 32.4860 104.2640 316° Northwest 447 514 23,100 -1,020 Descending FlightAware
07:59AM 32.5530 104.1970 320° Northwest 380 437 22,300 -840 Descending FlightAware
07:59AM 32.5750 104.1400 295° West 374 430 22,000 -300 Descending FlightAware
08:00AM 32.5960 104.0820 293° West 374 430 22,000  Level FlightAware
08:01AM 32.6180 104.0250 295° West 374 430 22,000  Level FlightAware
08:01AM 32.6390 103.9680 294° West 374 430 22,000  Level FlightAware
08:02AM 32.6610 103.9100 294° West 374 430 22,000  Level FlightAware
08:02AM 32.6820 103.8530 294° West 374 430 22,000  Level FlightAware
08:05AM 32.7967 103.7416 321° Northwest  Level Estimated
08:06AM 32.8497 103.6901 321° Northwest  Level Estimated
08:07AM 32.8570 103.6830 321° Northwest  Level Estimated
08:08AM 32.8570 103.6830 North  Level Estimated
08:09AM 32.8570 103.6830 North  Level Estimated
08:10AM 32.8570 103.6830 North  Level Estimated
08:11AM 32.8570 103.6830 North  Level Estimated
08:12AM 32.8570 103.6830 North  Level Estimated
08:13AM 32.8570 103.6830 North  Level Estimated
08:14AM 32.8570 103.6830 North  Level Estimated
08:15AM 32.8570 103.6830 North  Level Estimated
08:16AM 32.8570 103.6830 North  Level Estimated
08:17AM 32.8570 103.6830 North  Level Estimated
08:18AM 32.8570 103.6830 North  Level Estimated
08:19AM 32.8570 103.6830 North  Level Estimated
08:20AM 32.8570 103.6830 North  Level Estimated